createdAt,value
2017-07-29T00:01:22.486Z,99793.19
2017-07-29T00:03:52.053Z,99800.78
2017-07-29T00:06:21.658Z,99809.63
2017-07-29T00:08:51.741Z,99812.33
2017-07-29T00:11:22.104Z,99803.83
2017-07-29T00:13:51.674Z,99810.19
2017-07-29T00:16:22.032Z,99817.67
2017-07-29T00:18:51.662Z,99807.42
2017-07-29T00:21:21.200Z,99806.92
2017-07-29T00:23:50.793Z,99809.05
2017-07-29T00:26:20.366Z,99806.81
2017-07-29T00:28:49.958Z,99803.30
2017-07-29T00:31:20.324Z,99803.06
2017-07-29T00:33:49.867Z,99805.43
2017-07-29T00:36:19.448Z,99803.16
2017-07-29T00:38:49.148Z,99800.97
2017-07-29T00:41:18.688Z,99794.70
2017-07-29T00:43:48.260Z,99800.55
2017-07-29T00:46:17.802Z,99795.16
2017-07-29T00:48:47.375Z,99800.88
2017-07-29T00:51:17.040Z,99802.78
2017-07-29T00:53:46.714Z,99806.17
2017-07-29T00:56:16.261Z,99801.63
2017-07-29T00:58:46.550Z,99801.91
2017-07-29T01:01:16.101Z,99797.40
2017-07-29T01:03:45.633Z,99802.48
2017-07-29T01:06:15.174Z,99799.65
2017-07-29T01:08:44.743Z,99797.40
2017-07-29T01:11:14.314Z,99793.63
2017-07-29T01:13:45.083Z,99799.16
2017-07-29T01:16:14.614Z,99796.77
2017-07-29T01:18:44.163Z,99800.70
2017-07-29T01:21:13.555Z,99797.59
2017-07-29T01:23:43.868Z,99794.42
2017-07-29T01:26:13.480Z,99795.41
2017-07-29T01:28:42.407Z,99788.34
2017-07-29T01:31:11.932Z,99793.36
2017-07-29T01:33:41.469Z,99799.11
2017-07-29T01:36:11.008Z,99801.21
2017-07-29T01:38:41.379Z,99795.34
2017-07-29T01:41:10.921Z,99793.36
2017-07-29T01:43:40.512Z,99793.61
2017-07-29T01:46:09.393Z,99794.62
2017-07-29T01:48:38.921Z,99786.20
2017-07-29T01:51:07.770Z,99786.80
2017-07-29T01:53:37.299Z,99783.16
2017-07-29T01:56:06.877Z,99782.44
2017-07-29T01:58:36.397Z,99780.36
2017-07-29T02:01:05.223Z,99785.02
2017-07-29T02:03:34.438Z,99781.05
2017-07-29T02:06:04.750Z,99784.30
2017-07-29T02:08:33.950Z,99783.19
2017-07-29T02:11:03.798Z,99778.45
2017-07-29T02:13:33.337Z,99783.73
2017-07-29T02:16:02.845Z,99778.68
2017-07-29T02:18:32.402Z,99782.39
2017-07-29T02:21:02.688Z,99788.55
2017-07-29T02:23:32.273Z,99785.03
2017-07-29T02:26:01.780Z,99789.59
2017-07-29T02:28:31.321Z,99788.68
2017-07-29T02:31:00.882Z,99785.93
2017-07-29T02:33:30.452Z,99784.88
2017-07-29T02:36:00.761Z,99786.06
2017-07-29T02:38:30.275Z,99786.45
2017-07-29T02:41:00.609Z,99784.80
2017-07-29T02:43:30.887Z,99787.30
2017-07-29T02:46:00.472Z,99783.42
2017-07-29T02:48:30.009Z,99788.57
2017-07-29T02:50:59.555Z,99784.00
2017-07-29T02:53:29.113Z,99794.39
2017-07-29T02:55:58.630Z,99796.80
2017-07-29T02:58:28.508Z,99798.89
2017-07-29T03:00:58.017Z,99791.95
2017-07-29T03:03:27.551Z,99798.89
2017-07-29T03:05:57.082Z,99804.47
2017-07-29T03:08:26.629Z,99799.19
2017-07-29T03:10:56.145Z,99805.20
2017-07-29T03:13:25.689Z,99809.14
2017-07-29T03:15:55.220Z,99804.05
2017-07-29T03:18:25.544Z,99800.12
2017-07-29T03:20:55.869Z,99800.15
2017-07-29T03:23:25.839Z,99795.25
2017-07-29T03:25:55.176Z,99793.64
2017-07-29T03:28:25.552Z,99789.89
2017-07-29T03:30:55.076Z,99790.20
2017-07-29T03:33:24.278Z,99788.33
2017-07-29T03:35:53.832Z,99793.91
2017-07-29T03:38:24.135Z,99793.06
2017-07-29T03:40:53.687Z,99792.73
2017-07-29T03:43:23.301Z,99789.67
2017-07-29T03:45:52.863Z,99801.59
2017-07-29T03:48:22.837Z,99798.77
2017-07-29T03:50:52.375Z,99799.50
2017-07-29T03:53:22.800Z,99798.11
2017-07-29T03:55:52.331Z,99802.84
2017-07-29T03:58:22.654Z,99800.89
2017-07-29T04:00:52.999Z,99802.86
2017-07-29T04:03:22.559Z,99798.06
2017-07-29T04:05:52.193Z,99794.16
2017-07-29T04:08:22.514Z,99799.66
2017-07-29T04:10:52.812Z,99796.95
2017-07-29T04:13:22.368Z,99801.23
2017-07-29T04:15:51.890Z,99792.72
2017-07-29T04:18:21.532Z,99797.27
2017-07-29T04:20:51.829Z,99804.45
2017-07-29T04:23:21.358Z,99802.22
2017-07-29T04:25:50.586Z,99802.45
2017-07-29T04:28:20.169Z,99808.19
2017-07-29T04:30:49.705Z,99806.50
2017-07-29T04:33:20.270Z,99802.05
2017-07-29T04:35:49.808Z,99806.84
2017-07-29T04:38:19.350Z,99808.84
2017-07-29T04:40:49.874Z,99816.20
2017-07-29T04:43:20.239Z,99818.30
2017-07-29T04:45:49.799Z,99809.58
2017-07-29T04:48:19.331Z,99813.11
2017-07-29T04:50:48.903Z,99821.68
2017-07-29T04:53:18.410Z,99818.45
2017-07-29T04:55:47.937Z,99820.53
2017-07-29T04:58:18.232Z,99819.48
2017-07-29T05:00:47.782Z,99823.94
2017-07-29T05:03:17.359Z,99826.85
2017-07-29T05:05:46.903Z,99821.66
2017-07-29T05:08:16.455Z,99820.40
2017-07-29T05:10:45.982Z,99818.32
2017-07-29T05:13:15.658Z,99824.97
2017-07-29T05:15:45.217Z,99831.00
2017-07-29T05:18:14.761Z,99832.63
2017-07-29T05:20:44.405Z,99835.55
2017-07-29T05:23:13.922Z,99830.12
2017-07-29T05:25:43.462Z,99832.73
2017-07-29T05:28:13.028Z,99820.74
2017-07-29T05:30:42.575Z,99820.97
2017-07-29T05:33:11.754Z,99814.34
2017-07-29T05:35:41.331Z,99820.09
2017-07-29T05:38:10.690Z,99807.65
2017-07-29T05:40:40.224Z,99799.94
2017-07-29T05:43:09.761Z,99806.73
2017-07-29T05:45:39.102Z,99801.37
2017-07-29T05:48:08.632Z,99811.41
2017-07-29T05:50:38.166Z,99816.09
2017-07-29T05:53:07.693Z,99820.48
2017-07-29T05:55:38.004Z,99822.97
2017-07-29T05:58:07.541Z,99818.80
2017-07-29T06:00:36.393Z,99817.41
2017-07-29T06:03:05.932Z,99812.55
2017-07-29T06:05:35.473Z,99819.81
2017-07-29T06:08:05.006Z,99818.98
2017-07-29T06:10:34.512Z,99822.08
2017-07-29T06:13:04.046Z,99819.32
2017-07-29T06:15:34.344Z,99821.27
2017-07-29T06:18:03.887Z,99814.36
2017-07-29T06:20:33.432Z,99814.50
2017-07-29T06:23:02.775Z,99825.38
2017-07-29T06:25:33.192Z,99824.92
2017-07-29T06:28:02.771Z,99826.66
2017-07-29T06:30:32.335Z,99827.19
2017-07-29T06:33:02.639Z,99828.40
2017-07-29T06:35:32.224Z,99828.84
2017-07-29T06:38:01.772Z,99825.90
2017-07-29T06:40:32.062Z,99827.80
2017-07-29T06:43:01.707Z,99827.88
2017-07-29T06:45:32.024Z,99828.13
2017-07-29T06:48:02.404Z,99823.77
2017-07-29T06:50:31.947Z,99819.69
2017-07-29T06:53:02.260Z,99818.42
2017-07-29T06:55:32.639Z,99822.48
2017-07-29T06:58:02.171Z,99819.60
2017-07-29T07:00:31.755Z,99821.78
2017-07-29T07:03:01.389Z,99828.97
2017-07-29T07:05:30.920Z,99825.09
2017-07-29T07:08:00.475Z,99825.20
2017-07-29T07:10:30.033Z,99821.06
2017-07-29T07:12:59.550Z,99818.13
2017-07-29T07:15:29.873Z,99817.67
2017-07-29T07:18:00.200Z,99814.66
2017-07-29T07:20:30.509Z,99813.86
2017-07-29T07:23:00.051Z,99811.86
2017-07-29T07:25:29.599Z,99816.53
2017-07-29T07:27:59.141Z,99810.55
2017-07-29T07:30:29.122Z,99806.09
2017-07-29T07:32:58.675Z,99800.06
2017-07-29T07:35:28.977Z,99797.19
2017-07-29T07:37:58.542Z,99793.67
2017-07-29T07:40:28.077Z,99793.69
2017-07-29T07:42:57.602Z,99792.48
2017-07-29T07:45:27.549Z,99789.63
2017-07-29T07:47:57.582Z,99785.45
2017-07-29T07:50:27.132Z,99786.25
2017-07-29T07:52:56.655Z,99788.08
2017-07-29T07:55:26.958Z,99787.57
2017-07-29T07:57:56.514Z,99790.80
2017-07-29T08:00:26.205Z,99784.00
2017-07-29T08:02:55.780Z,99788.13
2017-07-29T08:05:25.327Z,99787.29
2017-07-29T08:07:54.529Z,99782.21
2017-07-29T08:10:24.659Z,99770.55
2017-07-29T08:12:54.196Z,99773.84
2017-07-29T08:15:23.735Z,99777.91
2017-07-29T08:17:53.302Z,99771.41
2017-07-29T08:20:22.852Z,99771.48
2017-07-29T08:22:53.153Z,99766.27
2017-07-29T08:25:23.378Z,99772.79
2017-07-29T08:27:53.583Z,99769.11
2017-07-29T08:30:23.179Z,99764.20
2017-07-29T08:32:52.727Z,99767.20
2017-07-29T08:35:22.414Z,99772.53
2017-07-29T08:37:51.993Z,99762.90
2017-07-29T08:40:23.105Z,99784.11
2017-07-29T08:42:53.375Z,99765.66
2017-07-29T08:45:22.913Z,99765.22
2017-07-29T08:47:52.437Z,99777.18
2017-07-29T08:50:22.902Z,99776.44
2017-07-29T08:52:52.206Z,99769.92
2017-07-29T08:55:21.879Z,99791.41
2017-07-29T08:57:52.255Z,99768.88
2017-07-29T09:00:21.472Z,99759.70
2017-07-29T09:02:50.816Z,99774.64
2017-07-29T09:05:21.160Z,99766.58
2017-07-29T09:07:50.729Z,99765.80
2017-07-29T09:10:20.274Z,99762.29
2017-07-29T09:12:49.839Z,99765.37
2017-07-29T09:15:19.388Z,99769.06
2017-07-29T09:17:49.009Z,99764.94
2017-07-29T09:20:18.568Z,99765.56
2017-07-29T09:22:48.620Z,99764.06
2017-07-29T09:25:18.187Z,99757.63
2017-07-29T09:27:47.724Z,99752.88
2017-07-29T09:30:17.272Z,99756.63
2017-07-29T09:32:46.820Z,99756.73
2017-07-29T09:35:17.126Z,99761.52
2017-07-29T09:37:46.760Z,99762.63
2017-07-29T09:40:17.153Z,99766.44
2017-07-29T09:42:46.701Z,99761.59
2017-07-29T09:45:16.240Z,99773.80
2017-07-29T09:47:45.766Z,99770.30
2017-07-29T09:50:15.319Z,99776.42
2017-07-29T09:52:44.895Z,99772.99
2017-07-29T09:55:14.266Z,99773.69
2017-07-29T09:57:43.799Z,99768.52
2017-07-29T10:00:13.331Z,99779.23
2017-07-29T10:02:43.698Z,99777.55
2017-07-29T10:05:13.218Z,99761.30
2017-07-29T10:07:43.045Z,99769.93
2017-07-29T10:10:12.604Z,99767.52
2017-07-29T10:12:42.143Z,99758.16
2017-07-29T10:15:11.698Z,99766.94
2017-07-29T10:17:42.001Z,99770.45
2017-07-29T10:20:11.549Z,99773.27
2017-07-29T10:22:41.095Z,99773.30
2017-07-29T10:25:10.640Z,99771.78
2017-07-29T10:27:40.939Z,99785.89
2017-07-29T10:30:10.490Z,99778.82
2017-07-29T10:32:40.015Z,99778.62
2017-07-29T10:35:09.571Z,99779.69
2017-07-29T10:37:39.106Z,99780.27
2017-07-29T10:40:08.621Z,99772.08
2017-07-29T10:42:38.353Z,99776.66
2017-07-29T10:45:07.893Z,99782.81
2017-07-29T10:47:37.430Z,99785.84
2017-07-29T10:50:06.958Z,99787.87
2017-07-29T10:52:36.509Z,99784.47
2017-07-29T10:55:06.064Z,99775.88
2017-07-29T10:57:35.634Z,99783.92
2017-07-29T11:00:04.718Z,99779.36
2017-07-29T11:02:34.243Z,99779.37
2017-07-29T11:05:04.596Z,99783.64
2017-07-29T11:07:34.128Z,99783.30
2017-07-29T11:10:03.351Z,99776.00
2017-07-29T11:12:32.724Z,99780.44
2017-07-29T11:15:02.256Z,99780.23
2017-07-29T11:17:31.428Z,99774.41
2017-07-29T11:20:01.377Z,99759.42
2017-07-29T11:22:30.903Z,99766.50
2017-07-29T11:25:01.214Z,99765.41
2017-07-29T11:27:30.751Z,99759.44
2017-07-29T11:30:00.286Z,99777.41
2017-07-29T11:32:29.846Z,99763.25
2017-07-29T11:35:00.172Z,99759.49
2017-07-29T11:37:31.412Z,99751.26
2017-07-29T11:40:00.929Z,99752.47
2017-07-29T11:42:31.752Z,99752.11
2017-07-29T11:45:01.325Z,99753.22
2017-07-29T11:47:31.641Z,99745.03
2017-07-29T11:50:01.172Z,99746.65
2017-07-29T11:52:30.719Z,99739.48
2017-07-29T11:55:00.292Z,99741.00
2017-07-29T11:57:29.516Z,99739.14
2017-07-29T11:59:59.847Z,99735.24
2017-07-29T12:02:29.390Z,99741.37
2017-07-29T12:04:58.931Z,99729.48
2017-07-29T12:07:28.480Z,99721.25
2017-07-29T12:09:58.101Z,99730.20
2017-07-29T12:12:27.654Z,99729.18
2017-07-29T12:14:57.180Z,99734.17
2017-07-29T12:17:27.496Z,99733.06
2017-07-29T12:19:57.794Z,99739.88
2017-07-29T12:22:27.358Z,99743.31
2017-07-29T12:24:56.891Z,99747.44
2017-07-29T12:27:26.717Z,99738.78
2017-07-29T12:29:56.259Z,99744.58
2017-07-29T12:32:26.573Z,99737.95
2017-07-29T12:34:56.096Z,99732.78
2017-07-29T12:37:26.440Z,99732.78
2017-07-29T12:39:55.605Z,99735.73
2017-07-29T12:42:25.155Z,99727.16
2017-07-29T12:44:54.683Z,99736.45
2017-07-29T12:47:24.261Z,99735.98
2017-07-29T12:49:54.411Z,99732.61
2017-07-29T12:52:23.955Z,99737.30
2017-07-29T12:54:54.110Z,99733.84
2017-07-29T12:57:23.651Z,99721.33
2017-07-29T12:59:53.177Z,99714.65
2017-07-29T13:02:22.738Z,99722.77
2017-07-29T13:04:52.268Z,99715.83
2017-07-29T13:07:22.013Z,99712.11
2017-07-29T13:09:52.307Z,99696.08
2017-07-29T13:12:21.867Z,99690.81
2017-07-29T13:14:51.547Z,99693.06
2017-07-29T13:17:21.102Z,99696.52
2017-07-29T13:19:50.635Z,99698.58
2017-07-29T13:22:20.188Z,99700.11
2017-07-29T13:24:50.478Z,99694.81
2017-07-29T13:27:20.080Z,99687.20
2017-07-29T13:29:49.609Z,99693.93
2017-07-29T13:32:19.954Z,99693.17
2017-07-29T13:34:49.510Z,99683.55
2017-07-29T13:37:19.028Z,99686.45
2017-07-29T13:39:48.213Z,99689.73
2017-07-29T13:42:17.764Z,99690.64
2017-07-29T13:44:48.074Z,99686.47
2017-07-29T13:47:17.585Z,99688.97
2017-07-29T13:49:48.088Z,99682.68
2017-07-29T13:52:17.671Z,99676.98
2017-07-29T13:54:47.201Z,99676.96
2017-07-29T13:57:16.803Z,99676.39
2017-07-29T13:59:46.324Z,99664.53
2017-07-29T14:02:15.827Z,99667.48
2017-07-29T14:04:45.411Z,99678.81
2017-07-29T14:07:14.931Z,99664.53
2017-07-29T14:09:44.469Z,99654.20
2017-07-29T14:12:14.885Z,99662.77
2017-07-29T14:14:44.413Z,99657.28
2017-07-29T14:17:14.737Z,99666.02
2017-07-29T14:19:45.023Z,99668.14
2017-07-29T14:22:14.603Z,99661.62
2017-07-29T14:24:44.165Z,99670.09
2017-07-29T14:27:13.701Z,99668.34
2017-07-29T14:29:43.280Z,99668.27
2017-07-29T14:32:13.988Z,99667.14
2017-07-29T14:34:43.638Z,99668.49
2017-07-29T14:37:13.587Z,99659.83
2017-07-29T14:39:43.166Z,99666.61
2017-07-29T14:42:12.717Z,99679.03
2017-07-29T14:44:42.928Z,99678.47
2017-07-29T14:47:12.466Z,99659.58
2017-07-29T14:49:42.207Z,99670.87
2017-07-29T14:52:12.506Z,99663.14
2017-07-29T14:54:42.333Z,99656.48
2017-07-29T14:57:12.450Z,99671.08
2017-07-29T14:59:42.790Z,99665.16
2017-07-29T15:02:13.095Z,99671.98
2017-07-29T15:04:43.403Z,99667.72
2017-07-29T15:07:12.962Z,99665.94
2017-07-29T15:09:42.785Z,99671.14
2017-07-29T15:12:12.335Z,99681.16
2017-07-29T15:14:41.865Z,99687.23
2017-07-29T15:17:11.423Z,99683.20
2017-07-29T15:19:40.950Z,99669.89
2017-07-29T15:22:10.150Z,99663.11
2017-07-29T15:24:41.267Z,99668.91
2017-07-29T15:27:10.160Z,99663.27
2017-07-29T15:29:39.875Z,99671.77
2017-07-29T15:32:09.423Z,99674.34
2017-07-29T15:34:39.732Z,99668.91
2017-07-29T15:37:09.299Z,99674.85
2017-07-29T15:39:38.829Z,99672.56
2017-07-29T15:42:09.277Z,99659.97
2017-07-29T15:44:38.855Z,99659.36
2017-07-29T15:47:08.397Z,99662.69
2017-07-29T15:49:37.911Z,99664.50
2017-07-29T15:52:07.480Z,99662.19
2017-07-29T15:54:37.100Z,99670.95
2017-07-29T15:57:06.619Z,99658.50
2017-07-29T15:59:36.279Z,99661.02
2017-07-29T16:02:06.788Z,99672.27
2017-07-29T16:04:36.319Z,99679.16
2017-07-29T16:07:05.858Z,99670.98
2017-07-29T16:09:35.424Z,99666.58
2017-07-29T16:12:04.979Z,99663.50
2017-07-29T16:14:34.545Z,99669.58
2017-07-29T16:17:04.118Z,99656.13
2017-07-29T16:19:33.685Z,99659.83
2017-07-29T16:22:03.254Z,99652.55
2017-07-29T16:24:32.870Z,99651.50
2017-07-29T16:27:02.418Z,99651.37
2017-07-29T16:29:31.975Z,99656.80
2017-07-29T16:32:01.581Z,99657.09
2017-07-29T16:34:31.121Z,99659.11
2017-07-29T16:37:00.650Z,99653.92
2017-07-29T16:39:30.243Z,99659.39
2017-07-29T16:41:59.790Z,99658.55
2017-07-29T16:44:29.356Z,99658.82
2017-07-29T16:46:59.076Z,99650.94
2017-07-29T16:49:29.250Z,99650.50
2017-07-29T16:51:58.787Z,99648.11
2017-07-29T16:54:28.137Z,99650.98
2017-07-29T16:56:57.697Z,99656.63
2017-07-29T16:59:27.252Z,99652.42
2017-07-29T17:01:56.793Z,99655.19
2017-07-29T17:04:26.453Z,99653.73
2017-07-29T17:06:56.760Z,99654.67
2017-07-29T17:09:25.964Z,99638.80
2017-07-29T17:11:55.533Z,99643.64
2017-07-29T17:14:25.075Z,99639.28
2017-07-29T17:16:54.594Z,99638.85
2017-07-29T17:19:24.153Z,99641.16
2017-07-29T17:21:53.708Z,99642.02
2017-07-29T17:24:24.880Z,99639.58
2017-07-29T17:26:54.423Z,99632.81
2017-07-29T17:29:24.039Z,99635.43
2017-07-29T17:31:53.567Z,99635.30
2017-07-29T17:34:23.131Z,99627.61
2017-07-29T17:36:52.700Z,99631.60
2017-07-29T17:39:22.274Z,99628.05
2017-07-29T17:41:51.807Z,99623.56
2017-07-29T17:44:22.129Z,99626.75
2017-07-29T17:46:52.490Z,99622.05
2017-07-29T17:49:22.027Z,99630.41
2017-07-29T17:51:51.237Z,99631.73
2017-07-29T17:54:20.845Z,99630.52
2017-07-29T17:56:50.366Z,99628.30
2017-07-29T17:59:19.889Z,99629.44
2017-07-29T18:01:50.259Z,99629.28
2017-07-29T18:04:19.787Z,99633.25
2017-07-29T18:06:49.343Z,99626.33
2017-07-29T18:09:18.969Z,99624.63
2017-07-29T18:11:48.506Z,99627.61
2017-07-29T18:14:18.078Z,99625.41
2017-07-29T18:16:47.626Z,99626.34
2017-07-29T18:19:17.155Z,99630.73
2017-07-29T18:21:46.687Z,99621.89
2017-07-29T18:24:16.196Z,99622.61
2017-07-29T18:26:45.750Z,99621.33
2017-07-29T18:29:15.320Z,99633.58
2017-07-29T18:31:44.870Z,99630.87
2017-07-29T18:34:14.398Z,99635.92
2017-07-29T18:36:43.925Z,99639.97
2017-07-29T18:39:13.497Z,99636.08
2017-07-29T18:41:43.048Z,99633.70
2017-07-29T18:44:12.598Z,99632.61
2017-07-29T18:46:42.203Z,99640.30
2017-07-29T18:49:11.763Z,99637.92
2017-07-29T18:51:41.331Z,99640.72
2017-07-29T18:54:10.905Z,99645.13
2017-07-29T18:56:40.454Z,99646.55
2017-07-29T18:59:10.779Z,99646.48
2017-07-29T19:01:41.412Z,99647.93
2017-07-29T19:04:11.730Z,99648.66
2017-07-29T19:06:41.279Z,99652.13
2017-07-29T19:09:10.818Z,99656.08
2017-07-29T19:11:40.371Z,99650.23
2017-07-29T19:14:10.690Z,99648.33
2017-07-29T19:16:41.008Z,99653.62
2017-07-29T19:19:11.339Z,99660.80
2017-07-29T19:21:41.641Z,99659.98
2017-07-29T19:24:11.234Z,99664.07
2017-07-29T19:26:40.776Z,99672.44
2017-07-29T19:29:11.139Z,99668.92
2017-07-29T19:31:40.665Z,99668.17
2017-07-29T19:34:10.228Z,99671.03
2017-07-29T19:36:40.520Z,99675.95
2017-07-29T19:39:10.065Z,99668.88
2017-07-29T19:41:39.594Z,99673.86
2017-07-29T19:44:09.180Z,99678.07
2017-07-29T19:46:38.866Z,99676.65
2017-07-29T19:49:08.444Z,99683.38
2017-07-29T19:51:37.998Z,99680.20
2017-07-29T19:54:07.555Z,99682.81
2017-07-29T19:56:37.118Z,99675.41
2017-07-29T19:59:06.684Z,99673.48
2017-07-29T20:01:36.230Z,99673.05
2017-07-29T20:04:05.753Z,99673.05
2017-07-29T20:06:34.973Z,99665.29
2017-07-29T20:09:03.761Z,99670.89
2017-07-29T20:11:33.312Z,99666.70
2017-07-29T20:14:03.641Z,99668.17
2017-07-29T20:16:34.050Z,99663.09
2017-07-29T20:19:03.774Z,99670.00
2017-07-29T20:21:34.085Z,99671.80
2017-07-29T20:24:03.688Z,99675.98
2017-07-29T20:26:33.210Z,99674.44
2017-07-29T20:29:03.542Z,99674.80
2017-07-29T20:31:33.861Z,99675.64
2017-07-29T20:34:04.283Z,99671.45
2017-07-29T20:36:34.610Z,99680.73
2017-07-29T20:39:03.768Z,99676.09
2017-07-29T20:41:33.373Z,99680.97
2017-07-29T20:44:02.928Z,99673.39
2017-07-29T20:46:33.364Z,99677.52
2017-07-29T20:49:03.677Z,99678.80
2017-07-29T20:51:33.979Z,99677.51
2017-07-29T20:54:03.531Z,99670.97
2017-07-29T20:56:33.155Z,99672.40
2017-07-29T20:59:02.743Z,99666.03
2017-07-29T21:01:32.265Z,99662.39
2017-07-29T21:04:01.834Z,99665.66
2017-07-29T21:06:32.158Z,99662.05
2017-07-29T21:09:02.506Z,99669.92
2017-07-29T21:11:32.064Z,99671.20
2017-07-29T21:14:01.601Z,99674.64
2017-07-29T21:16:31.914Z,99679.11
2017-07-29T21:19:01.457Z,99673.20
2017-07-29T21:21:30.655Z,99679.20
2017-07-29T21:24:00.216Z,99679.53
2017-07-29T21:26:29.838Z,99683.38
2017-07-29T21:28:59.424Z,99683.83
2017-07-29T21:31:28.984Z,99676.35
2017-07-29T21:33:58.540Z,99679.67
2017-07-29T21:36:28.079Z,99674.87
2017-07-29T21:38:58.429Z,99681.47
2017-07-29T21:41:28.010Z,99681.82
2017-07-29T21:43:58.317Z,99679.55
2017-07-29T21:46:27.857Z,99679.00
2017-07-29T21:48:57.435Z,99680.92
2017-07-29T21:51:26.991Z,99677.14
2017-07-29T21:53:56.581Z,99678.63
2017-07-29T21:56:26.148Z,99687.01
2017-07-29T21:58:55.733Z,99681.44
2017-07-29T22:01:25.305Z,99682.80
2017-07-29T22:03:55.207Z,99676.09
2017-07-29T22:06:24.629Z,99683.53
2017-07-29T22:08:54.262Z,99680.16
2017-07-29T22:11:23.182Z,99686.23
2017-07-29T22:13:52.729Z,99684.42
2017-07-29T22:16:22.380Z,99688.18
2017-07-29T22:18:51.939Z,99681.23
2017-07-29T22:21:21.485Z,99681.67
2017-07-29T22:23:51.046Z,99682.20
2017-07-29T22:26:20.610Z,99680.66
2017-07-29T22:28:50.209Z,99685.55
2017-07-29T22:31:19.741Z,99688.94
2017-07-29T22:33:49.277Z,99691.16
2017-07-29T22:36:18.928Z,99685.06
2017-07-29T22:38:48.459Z,99687.49
2017-07-29T22:41:18.029Z,99688.91
2017-07-29T22:43:47.600Z,99689.58
2017-07-29T22:46:17.928Z,99682.01
2017-07-29T22:48:48.228Z,99681.64
2017-07-29T22:51:17.757Z,99677.42
2017-07-29T22:53:47.364Z,99674.43
2017-07-29T22:56:17.700Z,99673.08
2017-07-29T22:58:47.227Z,99671.62
2017-07-29T23:01:16.879Z,99668.18
2017-07-29T23:03:46.421Z,99666.66
2017-07-29T23:06:15.952Z,99663.89
2017-07-29T23:08:45.596Z,99667.44
2017-07-29T23:11:15.149Z,99669.69
2017-07-29T23:13:44.698Z,99667.05
2017-07-29T23:16:14.237Z,99657.67
2017-07-29T23:18:44.578Z,99661.06
2017-07-29T23:21:14.166Z,99667.01
2017-07-29T23:23:44.598Z,99667.94
2017-07-29T23:26:14.588Z,99668.32
2017-07-29T23:28:44.302Z,99667.02
2017-07-29T23:31:13.866Z,99660.66
2017-07-29T23:33:43.452Z,99665.91
2017-07-29T23:36:13.754Z,99668.37
2017-07-29T23:38:43.302Z,99663.84
2017-07-29T23:41:12.867Z,99660.14
2017-07-29T23:43:42.460Z,99656.92
2017-07-29T23:46:12.019Z,99655.67
2017-07-29T23:48:41.556Z,99659.47
2017-07-29T23:51:11.154Z,99668.08
2017-07-29T23:53:40.857Z,99656.79
2017-07-29T23:56:10.525Z,99658.73
2017-07-29T23:58:40.838Z,99670.26
